• Join FlightAware (Why Join?)
  • Login
  • US Flag 
11:01AM EDT


 

Airport Tracker/Info


-or-


 

Live Flight TrackerFlight Track Log ✈ DAL3673 ✈ 13-Sep-2013 ✈ KMSP - KLSE

Flight Track Log - Related Links

Times and Time Zones

All times are in EDT time to prevent confusion due to time zone crossing. See the DAL3673 flight status page for this flight to view local times or setup timezone preferences in your user account.

Time Position Orientation Groundspeed Altitude Reporting Facility
EDT Latitude Longitude Course Direction KTS MPH feet Rate Location/Type
02:45PM 44.8500 -93.2167 153° Southeast 155 178 2,600  Level Minneapolis TRACON
02:46PM 44.8289 -93.2017 153° Southeast 168 193 3,000 1,740 Climbing Minneapolis Center
02:47PM 44.7806 -93.1442 140° Southeast 222 255 5,300 2,460 Climbing Minneapolis Center
02:48PM 44.7225 -93.0678 137° Southeast 281 323 8,100 2,700 Climbing Minneapolis Center
02:49PM 44.6569 -92.9611 131° Southeast 300 345 11,000 1,380 Climbing Minneapolis Center
02:50PM 44.5939 -92.8597 131° Southeast 349 402 11,000  Level Minneapolis Center
02:51PM 44.5278 -92.7522 131° Southeast 363 418 11,000  Level Minneapolis Center
02:52PM 44.4739 -92.6344 123° Southeast 360 414 11,000  Level Minneapolis Center
02:53PM 44.4236 -92.5158 121° Southeast 355 409 11,000  Level Minneapolis Center
02:54PM 44.3733 -92.3975 121° Southeast 356 410 11,000  Level Minneapolis Center
02:55PM 44.3117 -92.2544 121° Southeast 360 414 11,000  Level Minneapolis Center
02:56PM 44.2594 -92.1319 121° Southeast 368 423 11,000  Level Minneapolis Center
02:57PM 44.2075 -92.0072 120° Southeast 373 429 11,000 -120 Level Minneapolis Center
02:58PM 44.1606 -91.9028 122° Southeast 329 379 10,800 -840 Descending Minneapolis Center
02:59PM 44.1144 -91.7928 120° Southeast 299 344 9,300 -1,320 Descending Minneapolis Center
03:00PM 44.0694 -91.6917 122° Southeast 289 333 8,100 -1,200 Descending Minneapolis Center
03:01PM 44.0289 -91.5975 121° Southeast 286 329 6,900 -1,260 Descending Minneapolis Center
03:02PM 43.9886 -91.5050 121° Southeast 269 310 5,600 -1,260 Descending Minneapolis Center
03:03PM 43.9494 -91.4172 122° Southeast 257 296 4,300 -1,200 Descending Minneapolis Center
03:04PM 43.9025 -91.3547 136° Southeast 246 283 3,200 -600 Descending Minneapolis Center
03:05PM 43.8472 -91.3678 190° South 212 244 3,100 -240 Descending Minneapolis Center
03:06PM 43.8072 -91.3147 136° Southeast 198 228 2,800 -300 Descending Minneapolis Center
03:08PM 43.8667 -91.2500 125° Southeast  Level FlightAware Approximate